Time;durP1;ratioP1;P1;durP2;ratioP2;P2;SDS_P1;SDS_P2;PMS_P1;PMS_P2;Temp;Humidity;BMP_temperature;BMP_pressure;BME280_temperature;BME280_humidity;BME280_pressure;Samples;Min_cycle;Max_cycle;Signal;HPM_P1;HPM_P2
2023/05/12 00:00:12;;;;;;;14.75;13.35;;;14.20;99.90;;;;;;5075875;28;20257;-73
2023/05/12 00:02:38;;;;;;;18.52;16.83;;;14.20;99.90;;;;;;5084863;28;20211;-75
2023/05/12 00:05:06;;;;;;;14.75;13.35;;;14.20;99.90;;;;;;5093733;28;20231;-74
2023/05/12 00:07:33;;;;;;;16.48;14.10;;;14.10;99.90;;;;;;5065903;28;20211;-74
2023/05/12 00:10:01;;;;;;;16.70;15.02;;;14.00;99.90;;;;;;5067035;28;20306;-74
2023/05/12 00:12:28;;;;;;;17.00;15.40;;;14.00;99.90;;;;;;5064782;28;20250;-74
2023/05/12 00:14:55;;;;;;;18.00;16.50;;;14.00;99.90;;;;;;5072847;28;20290;-74
2023/05/12 00:17:23;;;;;;;19.05;17.05;;;13.90;99.90;;;;;;5073023;28;20214;-74
2023/05/12 00:19:50;;;;;;;16.38;14.88;;;13.90;99.90;;;;;;5074094;28;20325;-74
2023/05/12 00:22:17;;;;;;;17.55;15.90;;;13.90;99.90;;;;;;5066711;28;20667;-74
2023/05/12 00:24:44;;;;;;;18.58;16.88;;;13.90;99.90;;;;;;5070648;28;20201;-74
2023/05/12 00:27:13;;;;;;;14.90;13.63;;;13.90;99.90;;;;;;5062357;28;20203;-74
2023/05/12 00:29:40;;;;;;;21.30;18.40;;;13.80;99.90;;;;;;5060765;28;20775;-75
2023/05/12 00:32:07;;;;;;;19.83;18.05;;;13.80;99.90;;;;;;5076748;28;20281;-74
2023/05/12 00:34:34;;;;;;;20.63;18.60;;;13.70;99.90;;;;;;5072635;28;20195;-76
2023/05/12 00:37:01;;;;;;;18.73;17.02;;;13.70;99.90;;;;;;5073956;28;20211;-73
2023/05/12 00:39:28;;;;;;;20.13;18.20;;;13.60;99.90;;;;;;5070390;28;20310;-73
2023/05/12 00:41:56;;;;;;;17.35;15.65;;;13.60;99.90;;;;;;5063915;28;20599;-73
2023/05/12 00:44:24;;;;;;;18.83;17.02;;;13.60;99.90;;;;;;5072626;28;20195;-73
2023/05/12 00:46:53;;;;;;;20.98;19.08;;;13.60;99.90;;;;;;5069550;28;20211;-74
2023/05/12 00:49:20;;;;;;;19.90;17.90;;;13.50;99.90;;;;;;5071247;28;20238;-74
2023/05/12 00:51:47;;;;;;;22.75;20.55;;;13.50;99.90;;;;;;5072925;28;20289;-72
2023/05/12 00:54:14;;;;;;;19.90;18.00;;;13.40;99.90;;;;;;5065290;28;20229;-74
2023/05/12 00:56:42;;;;;;;16.70;15.30;;;13.40;99.90;;;;;;5063150;28;20203;-74
2023/05/12 00:59:09;;;;;;;18.15;16.40;;;13.50;99.90;;;;;;5058669;28;20227;-74
2023/05/12 01:01:37;;;;;;;23.30;21.00;;;13.40;99.90;;;;;;5066238;28;20294;-74
2023/05/12 01:04:04;;;;;;;23.85;21.42;;;13.40;99.90;;;;;;5065343;28;20200;-73
2023/05/12 01:06:38;;;;;;;20.63;18.63;;;13.40;99.90;;;;;;5082274;28;20253;-74
2023/05/12 01:09:06;;;;;;;18.65;16.95;;;13.40;99.90;;;;;;5070937;28;20227;-74
2023/05/12 01:11:32;;;;;;;23.30;20.92;;;13.40;99.90;;;;;;5068658;28;20294;-74
2023/05/12 01:13:59;;;;;;;22.65;19.80;;;13.30;99.90;;;;;;5076374;28;20635;-74
2023/05/12 01:16:46;;;;;;;22.27;20.08;;;13.30;99.90;;;;;;5073080;28;20225;-75
2023/05/12 01:19:26;;;;;;;24.33;21.83;;;13.20;99.90;;;;;;5076878;28;20308;-73
2023/05/12 01:21:53;;;;;;;23.33;20.88;;;13.20;99.90;;;;;;5051028;28;20720;-74
2023/05/12 01:24:25;;;;;;;26.42;23.65;;;13.20;99.90;;;;;;5074228;28;20198;-73
2023/05/12 01:26:53;;;;;;;22.58;20.42;;;13.20;99.90;;;;;;5071954;28;20198;-75
2023/05/12 01:29:22;;;;;;;25.95;23.25;;;13.10;99.90;;;;;;5068899;28;20226;-73
2023/05/12 01:31:50;;;;;;;23.42;21.08;;;13.10;99.90;;;;;;5073528;28;20290;-73
2023/05/12 01:34:18;;;;;;;22.77;20.60;;;13.10;99.90;;;;;;5073038;28;20535;-74
2023/05/12 01:36:45;;;;;;;27.63;24.83;;;13.10;99.90;;;;;;5074287;28;20208;-76
2023/05/12 01:39:12;;;;;;;22.10;20.00;;;13.20;99.90;;;;;;5069178;28;20286;-74
2023/05/12 01:41:39;;;;;;;27.73;24.85;;;13.10;99.90;;;;;;5069643;28;20217;-75
2023/05/12 01:44:08;;;;;;;29.27;26.20;;;13.10;99.90;;;;;;5070180;28;20195;-74
2023/05/12 01:46:35;;;;;;;31.95;28.65;;;13.10;99.90;;;;;;5070530;28;20219;-76
2023/05/12 01:49:02;;;;;;;28.33;24.98;;;13.10;99.90;;;;;;5076445;28;20272;-73
2023/05/12 01:51:29;;;;;;;31.00;27.77;;;13.10;99.90;;;;;;5084209;28;20257;-72
2023/05/12 01:54:05;;;;;;;29.83;24.67;;;13.10;99.90;;;;;;5088030;28;20221;-72
2023/05/12 01:56:32;;;;;;;30.58;27.58;;;13.10;99.90;;;;;;5072617;28;20203;-73
2023/05/12 01:58:59;;;;;;;32.50;28.40;;;13.20;99.90;;;;;;5066113;28;20696;-73
2023/05/12 02:01:27;;;;;;;31.30;28.00;;;13.20;99.90;;;;;;5067195;28;20665;-73
2023/05/12 02:03:54;;;;;;;37.05;29.55;;;13.20;99.90;;;;;;5065400;28;20221;-74
2023/05/12 02:06:21;;;;;;;32.97;29.42;;;13.20;99.90;;;;;;5068181;28;20203;-74
2023/05/12 02:08:48;;;;;;;31.98;28.58;;;13.30;99.90;;;;;;5066229;28;20207;-74
2023/05/12 02:11:15;;;;;;;30.35;27.17;;;13.30;99.90;;;;;;5069706;28;20569;-73
2023/05/12 02:13:43;;;;;;;34.75;28.20;;;13.30;99.90;;;;;;5065753;28;20787;-73
2023/05/12 02:16:11;;;;;;;35.05;31.05;;;13.30;99.90;;;;;;5069979;28;20217;-74
2023/05/12 02:18:39;;;;;;;35.60;28.58;;;13.30;99.90;;;;;;5067333;28;20202;-74
2023/05/12 02:21:06;;;;;;;37.10;33.00;;;13.30;99.90;;;;;;5072830;28;20565;-74
2023/05/12 02:23:33;;;;;;;34.67;30.65;;;13.30;99.90;;;;;;5062760;28;20237;-73
2023/05/12 02:26:00;;;;;;;39.10;33.78;;;13.30;99.90;;;;;;5059107;28;20301;-73
2023/05/12 02:28:27;;;;;;;41.67;34.08;;;13.40;99.90;;;;;;5063187;28;20226;-74
2023/05/12 02:30:54;;;;;;;38.10;34.10;;;13.30;99.90;;;;;;5065993;28;20226;-73
2023/05/12 02:33:21;;;;;;;42.05;35.72;;;13.40;99.90;;;;;;5074687;28;20260;-73
2023/05/12 02:35:50;;;;;;;37.13;31.58;;;13.30;99.90;;;;;;5060180;28;20199;-72
2023/05/12 02:38:17;;;;;;;44.13;37.33;;;13.40;99.90;;;;;;5070120;28;20653;-74
2023/05/12 02:40:44;;;;;;;39.42;32.88;;;13.40;99.90;;;;;;5064509;28;20311;-73
2023/05/12 02:43:11;;;;;;;40.30;33.97;;;13.50;99.90;;;;;;5069985;28;20277;-73
2023/05/12 02:45:37;;;;;;;40.30;36.05;;;13.40;99.90;;;;;;5068771;28;20214;-73
2023/05/12 02:48:05;;;;;;;38.90;34.70;;;13.40;99.90;;;;;;5067236;28;20278;-73
2023/05/12 02:50:32;;;;;;;35.00;31.25;;;13.50;99.90;;;;;;5070369;28;20307;-74
2023/05/12 02:53:00;;;;;;;36.53;32.58;;;13.50;99.90;;;;;;5065592;28;20290;-74
2023/05/12 02:55:28;;;;;;;47.35;40.45;;;13.50;99.90;;;;;;5065285;28;20191;-75
2023/05/12 02:57:55;;;;;;;45.58;38.08;;;13.40;99.90;;;;;;5067332;28;20282;-74
2023/05/12 03:00:22;;;;;;;39.30;33.25;;;13.50;99.90;;;;;;5067617;28;20309;-73
2023/05/12 03:02:49;;;;;;;44.25;37.10;;;13.50;99.90;;;;;;5065415;28;20297;-73
2023/05/12 03:05:16;;;;;;;44.28;37.90;;;13.60;99.90;;;;;;5068066;28;20191;-74
2023/05/12 03:07:44;;;;;;;42.28;35.85;;;13.60;99.90;;;;;;5070507;28;20220;-73
2023/05/12 03:10:12;;;;;;;45.65;37.00;;;13.60;99.90;;;;;;5060380;28;20310;-74
2023/05/12 03:12:40;;;;;;;50.03;39.17;;;13.60;99.90;;;;;;5070476;28;20203;-75
2023/05/12 03:15:08;;;;;;;51.55;40.95;;;13.60;99.90;;;;;;5068671;28;20258;-73
2023/05/12 03:17:36;;;;;;;44.53;39.03;;;13.60;99.90;;;;;;5074886;28;20198;-74
2023/05/12 03:20:04;;;;;;;49.78;41.85;;;13.50;99.90;;;;;;5073021;28;20305;-74
2023/05/12 03:22:31;;;;;;;50.45;40.53;;;13.60;99.90;;;;;;5079946;28;20569;-74
2023/05/12 03:24:57;;;;;;;57.03;41.33;;;13.50;99.90;;;;;;5081478;28;20565;-73
2023/05/12 03:27:26;;;;;;;42.45;37.83;;;13.60;99.90;;;;;;5070210;28;20676;-73
2023/05/12 03:29:53;;;;;;;48.88;42.40;;;13.60;99.90;;;;;;5074103;28;20310;-76
2023/05/12 03:32:20;;;;;;;48.47;41.55;;;13.60;99.90;;;;;;5065843;28;20203;-74
2023/05/12 03:34:46;;;;;;;43.80;38.88;;;13.60;99.90;;;;;;5073898;28;20577;-74
2023/05/12 03:37:13;;;;;;;46.50;38.67;;;13.70;99.90;;;;;;5069798;28;20294;-72
2023/05/12 03:39:40;;;;;;;47.72;40.33;;;13.70;99.90;;;;;;5065286;28;20306;-74
2023/05/12 03:42:34;;;;;;;49.97;40.60;;;13.70;99.90;;;;;;5092507;28;20199;-74
2023/05/12 03:45:01;;;;;;;44.85;40.08;;;13.70;99.90;;;;;;5058684;28;20209;-72
2023/05/12 03:47:28;;;;;;;46.25;40.83;;;13.80;99.90;;;;;;5076247;28;20199;-73
2023/05/12 03:49:55;;;;;;;42.47;37.60;;;13.80;99.90;;;;;;5074567;28;20215;-72
2023/05/12 03:52:22;;;;;;;45.72;38.60;;;13.80;99.90;;;;;;5067453;28;20225;-74
2023/05/12 03:54:49;;;;;;;51.30;42.53;;;13.90;99.90;;;;;;5071972;28;20296;-73
2023/05/12 03:57:17;;;;;;;45.83;38.35;;;13.90;99.90;;;;;;5073576;28;20206;-73
2023/05/12 03:59:45;;;;;;;50.53;40.70;;;13.90;99.90;;;;;;5064452;28;20689;-75
2023/05/12 04:02:12;;;;;;;41.15;36.08;;;13.90;99.90;;;;;;5071119;28;20298;-73
2023/05/12 04:04:39;;;;;;;47.45;40.13;;;13.90;99.90;;;;;;5067437;28;20278;-75
2023/05/12 04:07:06;;;;;;;40.05;35.80;;;13.90;99.90;;;;;;5072622;28;20293;-74
2023/05/12 04:09:33;;;;;;;41.92;37.40;;;13.90;99.90;;;;;;5074969;28;20226;-74
2023/05/12 04:12:01;;;;;;;41.72;37.38;;;14.00;99.90;;;;;;5068290;28;20226;-75
2023/05/12 04:14:28;;;;;;;44.22;38.67;;;14.00;99.90;;;;;;5071567;28;20214;-75
2023/05/12 04:16:57;;;;;;;43.30;38.15;;;14.00;99.90;;;;;;5065370;28;20211;-73
2023/05/12 04:19:24;;;;;;;52.10;41.53;;;14.00;99.90;;;;;;5071178;28;20298;-75
2023/05/12 04:21:51;;;;;;;40.22;36.03;;;13.90;99.90;;;;;;5074314;28;20201;-73
2023/05/12 04:24:17;;;;;;;39.40;35.40;;;13.90;99.90;;;;;;5075259;28;20624;-73
2023/05/12 04:26:44;;;;;;;40.80;36.40;;;14.00;99.90;;;;;;5067102;28;20282;-74
2023/05/12 04:29:12;;;;;;;41.97;36.70;;;14.00;99.90;;;;;;5066316;28;20294;-74
2023/05/12 04:31:40;;;;;;;40.20;35.72;;;14.00;99.90;;;;;;5068211;28;20195;-72
2023/05/12 04:34:08;;;;;;;44.35;39.45;;;14.00;99.90;;;;;;5072474;28;20550;-74
2023/05/12 04:36:35;;;;;;;47.80;40.80;;;14.10;99.90;;;;;;5072969;28;20226;-73
2023/05/12 04:39:02;;;;;;;40.92;36.67;;;14.10;99.90;;;;;;5070719;28;20317;-73
2023/05/12 04:41:29;;;;;;;39.85;35.63;;;14.10;99.90;;;;;;5065551;28;20196;-76
2023/05/12 04:43:55;;;;;;;43.53;36.35;;;14.20;99.90;;;;;;5065907;28;20563;-76
2023/05/12 04:46:22;;;;;;;38.40;34.58;;;14.10;99.90;;;;;;5071153;28;20298;-75
2023/05/12 04:48:49;;;;;;;41.30;36.90;;;14.20;99.90;;;;;;5070048;28;20206;-75
2023/05/12 04:51:17;;;;;;;46.80;36.13;;;14.20;99.90;;;;;;5070673;28;20200;-76
2023/05/12 04:53:44;;;;;;;43.78;36.67;;;14.20;99.90;;;;;;5070545;28;20237;-74
2023/05/12 04:56:11;;;;;;;38.00;34.00;;;14.20;99.90;;;;;;5067816;28;20192;-76
2023/05/12 04:58:38;;;;;;;43.63;37.17;;;14.30;99.90;;;;;;5073411;28;20241;-76
2023/05/12 05:01:06;;;;;;;34.05;30.55;;;14.30;99.90;;;;;;5071650;28;20199;-76
2023/05/12 05:03:33;;;;;;;40.17;35.78;;;14.30;99.90;;;;;;5072686;28;20727;-76
2023/05/12 05:06:00;;;;;;;38.05;33.97;;;14.30;99.90;;;;;;5069019;28;20661;-78
2023/05/12 05:08:28;;;;;;;35.85;32.13;;;14.30;99.90;;;;;;5070493;28;20215;-79
2023/05/12 05:11:03;;;;;;;31.42;28.17;;;14.40;99.90;;;;;;5068605;28;20306;-76
2023/05/12 05:13:30;;;;;;;35.97;32.17;;;14.50;99.90;;;;;;5064726;28;20533;-77
2023/05/12 05:15:58;;;;;;;34.75;31.10;;;14.50;99.90;;;;;;5064458;28;20218;-78
2023/05/12 05:18:25;;;;;;;32.17;29.05;;;14.60;99.90;;;;;;5057836;28;20282;-74
2023/05/12 05:20:53;;;;;;;30.73;27.52;;;14.60;99.90;;;;;;5073106;28;20311;-74
2023/05/12 05:23:20;;;;;;;37.17;33.33;;;14.70;99.90;;;;;;5072203;28;20215;-74
2023/05/12 05:25:50;;;;;;;34.95;29.83;;;14.60;99.90;;;;;;5068485;28;20210;-75
2023/05/12 05:28:16;;;;;;;30.73;27.58;;;14.70;99.90;;;;;;5068746;28;20202;-74
2023/05/12 05:30:43;;;;;;;31.20;27.77;;;14.70;99.90;;;;;;5084202;28;20249;-75
2023/05/12 05:33:11;;;;;;;28.67;25.95;;;14.80;99.90;;;;;;5069814;28;20248;-77
2023/05/12 05:35:38;;;;;;;31.10;28.00;;;14.80;99.90;;;;;;5071871;28;20208;-75
2023/05/12 05:38:05;;;;;;;28.20;25.40;;;15.00;99.90;;;;;;5066086;28;20284;-75
2023/05/12 05:40:32;;;;;;;28.15;25.17;;;15.00;99.90;;;;;;5066509;28;20250;-77
2023/05/12 05:43:00;;;;;;;30.20;27.00;;;15.10;99.90;;;;;;5060225;28;20288;-78
2023/05/12 05:45:28;;;;;;;30.20;27.30;;;15.20;99.90;;;;;;5070129;28;20202;-76
2023/05/12 05:47:54;;;;;;;25.10;22.67;;;15.20;99.90;;;;;;5073384;28;20215;-77
2023/05/12 05:50:21;;;;;;;26.58;23.98;;;15.20;99.90;;;;;;5072018;28;20231;-75
2023/05/12 05:52:48;;;;;;;25.63;23.13;;;15.30;99.90;;;;;;5073260;28;20201;-75
2023/05/12 05:55:18;;;;;;;24.35;22.05;;;15.30;99.90;;;;;;5071673;28;20217;-77
2023/05/12 05:57:45;;;;;;;22.77;20.33;;;15.40;99.90;;;;;;5071643;28;20581;-76
2023/05/12 06:00:17;;;;;;;23.00;20.80;;;15.50;99.90;;;;;;5062301;28;20233;-76
2023/05/12 06:02:45;;;;;;;20.67;18.53;;;15.60;99.90;;;;;;5067162;28;20459;-74
2023/05/12 06:05:12;;;;;;;24.17;21.77;;;15.70;99.90;;;;;;5066527;28;20531;-76
2023/05/12 06:07:40;;;;;;;22.58;20.42;;;15.70;99.90;;;;;;5067374;28;20208;-77
2023/05/12 06:10:08;;;;;;;22.48;20.42;;;15.80;99.90;;;;;;5064934;28;20221;-77
2023/05/12 06:12:35;;;;;;;23.25;21.23;;;15.80;99.90;;;;;;5062248;28;20602;-78
2023/05/12 06:15:02;;;;;;;21.48;19.48;;;15.80;99.90;;;;;;5070096;28;20225;-75
2023/05/12 06:17:30;;;;;;;20.02;18.13;;;15.90;99.90;;;;;;5072178;28;20298;-76
2023/05/12 06:19:57;;;;;;;17.83;16.23;;;16.00;99.90;;;;;;5065810;28;20227;-74
2023/05/12 06:22:25;;;;;;;20.43;18.63;;;16.20;99.90;;;;;;5070517;28;20206;-76
2023/05/12 06:24:52;;;;;;;21.50;17.80;;;16.30;99.90;;;;;;5072815;28;20517;-78
2023/05/12 06:27:20;;;;;;;16.37;14.77;;;16.50;99.90;;;;;;5072440;28;20457;-77
2023/05/12 06:29:47;;;;;;;20.57;16.60;;;16.70;99.90;;;;;;5071572;28;20533;-76
2023/05/12 06:32:15;;;;;;;15.50;14.20;;;17.00;99.90;;;;;;5066425;28;20922;-76
2023/05/12 06:34:43;;;;;;;17.30;15.47;;;17.40;99.90;;;;;;5072316;28;20569;-77
2023/05/12 06:37:10;;;;;;;14.43;13.03;;;17.80;99.90;;;;;;5072960;28;20445;-74
2023/05/12 06:39:37;;;;;;;14.27;12.90;;;18.70;99.90;;;;;;5066330;28;20473;-76
2023/05/12 06:42:06;;;;;;;12.53;11.43;;;20.20;99.90;;;;;;5066435;28;20533;-74
2023/05/12 06:44:33;;;;;;;15.10;12.30;;;21.20;99.90;;;;;;5064421;28;20446;-75
2023/05/12 06:47:00;;;;;;;12.30;11.30;;;21.60;99.90;;;;;;5064823;28;20853;-77
2023/05/12 06:49:27;;;;;;;12.50;11.40;;;22.10;99.90;;;;;;5063729;28;20464;-76
2023/05/12 06:51:55;;;;;;;14.37;10.70;;;22.40;99.90;;;;;;5061468;28;20523;-77
2023/05/12 06:54:22;;;;;;;12.80;11.70;;;22.80;99.90;;;;;;5055858;28;20480;-73
2023/05/12 06:56:49;;;;;;;13.27;12.27;;;23.20;99.90;;;;;;5076546;28;20483;-75
2023/05/12 06:59:16;;;;;;;13.33;12.13;;;23.10;99.90;;;;;;5074323;28;20514;-73
2023/05/12 07:01:43;;;;;;;13.17;12.07;;;23.00;99.90;;;;;;5063057;28;20576;-77
2023/05/12 07:04:10;;;;;;;12.40;11.23;;;22.80;99.90;;;;;;5066985;28;20449;-76
2023/05/12 07:06:37;;;;;;;12.27;11.07;;;23.00;99.90;;;;;;5069445;28;20473;-77
2023/05/12 07:09:05;;;;;;;13.90;12.63;;;23.10;99.90;;;;;;5072051;28;20473;-76
2023/05/12 07:11:32;;;;;;;13.10;12.00;;;23.40;99.90;;;;;;5072111;28;20532;-78
2023/05/12 07:14:00;;;;;;;12.17;10.83;;;23.50;99.90;;;;;;5068776;28;20872;-79
2023/05/12 07:16:27;;;;;;;11.67;10.50;;;23.60;99.90;;;;;;5069277;28;20523;-75
2023/05/12 07:18:53;;;;;;;12.43;11.43;;;23.40;99.90;;;;;;5078068;28;20457;-76
2023/05/12 07:21:20;;;;;;;12.47;11.27;;;23.30;99.90;;;;;;5086900;28;20445;-76
2023/05/12 07:23:48;;;;;;;12.00;10.87;;;23.20;99.90;;;;;;5073771;28;20523;-75
2023/05/12 07:26:17;;;;;;;12.03;10.83;;;23.00;99.40;;;;;;5071460;28;20509;-77
2023/05/12 07:28:44;;;;;;;11.17;9.17;;;23.10;98.80;;;;;;5070929;28;20816;-76
2023/05/12 07:31:11;;;;;;;11.33;10.20;;;22.80;98.80;;;;;;5067487;28;20441;-77
2023/05/12 07:33:39;;;;;;;11.50;10.40;;;23.00;98.00;;;;;;5057638;28;20454;-76
2023/05/12 07:36:07;;;;;;;11.43;10.43;;;23.00;97.90;;;;;;5071314;28;20507;-77
2023/05/12 07:38:34;;;;;;;14.50;13.20;;;22.80;98.50;;;;;;5063693;28;20453;-77
2023/05/12 07:41:02;;;;;;;16.40;11.03;;;22.70;99.90;;;;;;5060702;28;20523;-75
2023/05/12 07:43:30;;;;;;;9.70;8.67;;;22.60;99.90;;;;;;5072063;28;20453;-76
2023/05/12 07:45:59;;;;;;;9.93;9.03;;;22.70;99.50;;;;;;5062285;28;20877;-78
2023/05/12 07:48:26;;;;;;;11.13;10.03;;;23.10;98.00;;;;;;5069476;28;20437;-76
2023/05/12 07:50:53;;;;;;;10.20;9.20;;;23.60;99.90;;;;;;5070700;28;20468;-76
2023/05/12 07:53:21;;;;;;;11.03;10.13;;;24.20;96.90;;;;;;5071657;28;20441;-77
2023/05/12 07:55:47;;;;;;;10.80;9.80;;;24.50;96.50;;;;;;5060785;28;21057;-77
2023/05/12 07:58:15;;;;;;;8.97;8.13;;;25.00;95.60;;;;;;5068806;28;20785;-76
2023/05/12 08:00:43;;;;;;;10.10;9.20;;;25.10;93.60;;;;;;5070732;28;20468;-76
2023/05/12 08:03:10;;;;;;;9.63;8.67;;;25.20;93.00;;;;;;5068838;28;20932;-77
2023/05/12 08:05:37;;;;;;;9.80;8.60;;;25.30;92.90;;;;;;5072003;28;20823;-77
2023/05/12 08:08:04;;;;;;;8.37;7.47;;;25.90;92.80;;;;;;5068014;28;20504;-78
2023/05/12 08:10:31;;;;;;;10.33;8.80;;;26.60;93.50;;;;;;5068060;28;20970;-77
2023/05/12 08:12:58;;;;;;;10.57;7.40;;;27.30;91.50;;;;;;5063996;28;20445;-77
2023/05/12 08:15:25;;;;;;;8.50;7.80;;;28.00;90.20;;;;;;5068663;28;20811;-76
2023/05/12 08:17:53;;;;;;;8.27;7.57;;;28.20;86.40;;;;;;5074628;28;20453;-76
2023/05/12 08:20:21;;;;;;;7.83;7.10;;;27.90;86.10;;;;;;5071862;28;20551;-76
2023/05/12 08:22:49;;;;;;;7.47;6.90;;;27.60;86.80;;;;;;5072660;28;20841;-77
2023/05/12 08:25:17;;;;;;;7.63;7.03;;;27.30;87.10;;;;;;5070733;28;20441;-76
2023/05/12 08:27:44;;;;;;;9.03;8.20;;;27.60;87.30;;;;;;5074013;28;20524;-78
2023/05/12 08:30:12;;;;;;;9.00;7.80;;;27.40;86.90;;;;;;5068605;28;20544;-78
2023/05/12 08:32:39;;;;;;;9.70;7.70;;;27.30;88.40;;;;;;5068539;28;20524;-77
2023/05/12 08:35:07;;;;;;;8.77;7.87;;;27.20;86.70;;;;;;5077379;28;20483;-76
2023/05/12 08:37:34;;;;;;;13.87;7.93;;;27.20;90.10;;;;;;5077720;28;20448;-77
2023/05/12 08:40:10;;;;;;;7.83;7.13;;;27.40;88.10;;;;;;5075998;28;20501;-76
2023/05/12 08:42:42;;;;;;;7.07;6.40;;;27.50;88.00;;;;;;5081332;28;20534;-76
2023/05/12 08:45:11;;;;;;;6.80;6.13;;;28.80;83.70;;;;;;5073673;28;20937;-77
2023/05/12 08:47:40;;;;;;;7.07;6.47;;;29.50;82.80;;;;;;5061321;28;20468;-75
2023/05/12 08:50:10;;;;;;;9.27;6.83;;;29.70;80.70;;;;;;5066125;28;20568;-76
2023/05/12 08:52:37;;;;;;;8.07;6.23;;;30.30;78.80;;;;;;5066934;28;20449;-78
2023/05/12 08:55:05;;;;;;;6.40;5.73;;;30.60;74.50;;;;;;5074647;28;20481;-76
2023/05/12 08:57:33;;;;;;;7.10;4.80;;;30.90;74.60;;;;;;5067126;28;20457;-77
2023/05/12 09:00:03;;;;;;;5.37;4.90;;;31.50;72.00;;;;;;5070858;28;20500;-76
2023/05/12 09:02:31;;;;;;;8.60;5.60;;;32.30;71.70;;;;;;5069482;28;20457;-77
2023/05/12 09:04:58;;;;;;;6.43;5.80;;;33.10;69.70;;;;;;5068777;28;20440;-76
2023/05/12 09:07:27;;;;;;;5.67;5.17;;;33.60;68.40;;;;;;5078943;28;20857;-79
2023/05/12 09:09:57;;;;;;;6.10;5.53;;;33.80;66.20;;;;;;5087741;28;20457;-76
2023/05/12 09:12:34;;;;;;;6.37;4.83;;;34.60;63.80;;;;;;5076002;28;20441;-75
2023/05/12 09:15:06;;;;;;;7.40;5.23;;;35.30;60.10;;;;;;5070750;28;20440;-77
2023/05/12 09:17:35;;;;;;;16.33;5.57;;;34.60;60.70;;;;;;5068705;28;20508;-76
2023/05/12 09:20:02;;;;;;;6.27;5.63;;;33.50;60.90;;;;;;5068921;28;20906;-78
2023/05/12 09:22:33;;;;;;;5.20;4.80;;;33.40;64.40;;;;;;5070755;28;21010;-78
2023/05/12 09:25:00;;;;;;;5.17;4.77;;;33.50;64.40;;;;;;5080710;28;20539;-77
2023/05/12 09:27:29;;;;;;;5.80;5.30;;;34.00;64.00;;;;;;5065554;28;20439;-77
2023/05/12 09:29:56;;;;;;;5.80;5.30;;;34.90;61.50;;;;;;5068703;28;20495;-77
2023/05/12 09:32:33;;;;;;;7.07;4.93;;;35.30;61.90;;;;;;5064100;28;20529;-77
2023/05/12 09:35:04;;;;;;;4.57;4.17;;;34.80;60.20;;;;;;5070637;28;20919;-78
2023/05/12 09:37:33;;;;;;;6.03;5.53;;;34.20;58.80;;;;;;5071623;28;20949;-75
2023/05/12 09:40:01;;;;;;;6.30;5.70;;;32.50;61.40;;;;;;5064794;28;20469;-77
2023/05/12 09:42:29;;;;;;;6.40;5.20;;;31.60;66.70;;;;;;5057023;28;20438;-78
2023/05/12 09:44:59;;;;;;;5.33;4.30;;;31.30;66.70;;;;;;5065428;28;20437;-77
2023/05/12 09:47:28;;;;;;;5.60;5.00;;;31.50;64.00;;;;;;5072177;28;20445;-76
2023/05/12 09:49:56;;;;;;;5.20;4.70;;;31.30;62.20;;;;;;5065022;28;20465;-77
2023/05/12 09:52:23;;;;;;;4.77;4.10;;;31.50;64.50;;;;;;5066616;28;20465;-78
2023/05/12 09:54:52;;;;;;;5.47;4.60;;;32.10;63.00;;;;;;5067083;28;20442;-77
2023/05/12 09:57:21;;;;;;;12.13;5.33;;;32.70;59.60;;;;;;5073340;28;20560;-77
2023/05/12 09:59:50;;;;;;;5.53;4.90;;;32.70;60.40;;;;;;5069053;28;20471;-76
2023/05/12 10:02:18;;;;;;;8.00;6.00;;;32.60;58.20;;;;;;5068185;28;20549;-77
2023/05/12 10:04:55;;;;;;;6.20;5.70;;;32.20;59.90;;;;;;5068524;28;20454;-76
2023/05/12 10:07:25;;;;;;;6.30;5.77;;;31.80;61.60;;;;;;5063687;28;20434;-78
2023/05/12 10:09:57;;;;;;;6.80;6.20;;;31.70;63.40;;;;;;5065924;28;20461;-75
2023/05/12 10:12:24;;;;;;;7.20;6.03;;;31.60;62.80;;;;;;5066900;28;20865;-79
2023/05/12 10:14:53;;;;;;;8.00;6.37;;;31.70;62.30;;;;;;5061895;28;20450;-76
2023/05/12 10:17:20;;;;;;;6.70;6.00;;;31.50;63.20;;;;;;5058956;28;20490;-77
2023/05/12 10:19:48;;;;;;;6.20;5.57;;;31.30;65.00;;;;;;5066282;28;20466;-77
2023/05/12 10:22:17;;;;;;;6.97;6.27;;;31.40;66.00;;;;;;5071301;28;20533;-78
2023/05/12 10:24:46;;;;;;;8.43;6.70;;;31.30;66.20;;;;;;5070945;28;20497;-74
2023/05/12 10:27:16;;;;;;;6.10;4.90;;;31.40;61.70;;;;;;5071951;28;20920;-76
2023/05/12 10:29:43;;;;;;;5.17;4.67;;;31.50;59.60;;;;;;5061335;28;20504;-78
2023/05/12 10:32:11;;;;;;;5.40;4.27;;;31.10;59.30;;;;;;5067535;28;20529;-76
2023/05/12 10:34:40;;;;;;;4.60;4.13;;;30.50;58.80;;;;;;5057968;28;20526;-77
2023/05/12 10:37:10;;;;;;;7.73;5.00;;;29.90;59.30;;;;;;5070873;28;20473;-78
2023/05/12 10:39:37;;;;;;;5.67;4.93;;;29.30;60.00;;;;;;5069261;28;20819;-76
2023/05/12 10:42:07;;;;;;;6.27;4.90;;;28.60;61.50;;;;;;5080420;28;20536;-78
2023/05/12 10:44:47;;;;;;;9.93;5.40;;;28.10;64.70;;;;;;5069706;28;20556;-75
2023/05/12 10:47:14;;;;;;;5.07;4.57;;;27.30;65.50;;;;;;5062746;28;20473;-77
2023/05/12 10:49:42;;;;;;;7.10;5.53;;;27.00;65.80;;;;;;5068116;28;20874;-76
2023/05/12 10:52:11;;;;;;;4.70;4.30;;;27.20;69.10;;;;;;5073391;28;20507;-76
2023/05/12 10:54:43;;;;;;;5.67;5.07;;;27.00;66.10;;;;;;5072620;28;20516;-77
2023/05/12 10:57:13;;;;;;;6.10;4.53;;;26.90;66.20;;;;;;5071110;28;20477;-76
2023/05/12 10:59:50;;;;;;;4.83;4.33;;;26.70;65.80;;;;;;5063537;28;20469;-75
2023/05/12 11:02:20;;;;;;;5.73;4.70;;;26.40;67.00;;;;;;5065864;28;20839;-77
2023/05/12 11:04:49;;;;;;;4.93;4.50;;;26.10;64.10;;;;;;5075410;28;20449;-77
2023/05/12 11:07:21;;;;;;;7.40;6.67;;;26.00;68.30;;;;;;5080366;28;20470;-77
2023/05/12 11:09:49;;;;;;;4.80;4.40;;;25.80;70.70;;;;;;5077254;28;20559;-77
2023/05/12 11:12:16;;;;;;;5.73;4.60;;;25.90;71.70;;;;;;5078151;28;20444;-75
2023/05/12 11:14:45;;;;;;;5.83;5.13;;;26.00;70.10;;;;;;5072561;28;20811;-76
2023/05/12 11:17:15;;;;;;;6.73;4.50;;;25.90;67.70;;;;;;5063875;28;20832;-76
2023/05/12 11:19:46;;;;;;;6.20;4.90;;;25.80;67.60;;;;;;5065636;28;20484;-77
2023/05/12 11:22:13;;;;;;;8.20;5.13;;;25.40;68.10;;;;;;5067597;28;20444;-77
2023/05/12 11:24:41;;;;;;;5.13;4.73;;;25.30;67.90;;;;;;5071712;28;20445;-75
2023/05/12 11:27:13;;;;;;;6.93;5.00;;;25.20;68.70;;;;;;5062680;28;20517;-76
2023/05/12 11:29:40;;;;;;;7.43;4.57;;;25.30;69.30;;;;;;5067379;28;20508;-78
2023/05/12 11:32:09;;;;;;;5.33;4.87;;;25.20;70.10;;;;;;5070318;28;20450;-77
2023/05/12 11:34:38;;;;;;;5.87;5.30;;;25.30;71.00;;;;;;5064968;28;20442;-76
2023/05/12 11:37:06;;;;;;;5.33;4.80;;;25.30;68.40;;;;;;5067264;28;20507;-78
2023/05/12 11:39:33;;;;;;;4.70;4.27;;;25.40;67.20;;;;;;5068197;28;20472;-76
2023/05/12 11:42:03;;;;;;;5.63;5.13;;;25.50;68.50;;;;;;5062551;28;20449;-74
2023/05/12 11:44:31;;;;;;;5.67;5.20;;;25.80;69.00;;;;;;5068638;28;20852;-76
2023/05/12 11:46:59;;;;;;;5.00;4.50;;;26.00;66.60;;;;;;5062245;28;20520;-76
2023/05/12 11:49:27;;;;;;;4.40;4.00;;;26.20;66.50;;;;;;5072687;28;20534;-76
2023/05/12 11:51:57;;;;;;;4.30;4.00;;;26.10;65.10;;;;;;5067468;28;20508;-77
2023/05/12 11:54:24;;;;;;;5.43;4.00;;;25.70;59.20;;;;;;5075340;28;20449;-78
2023/05/12 11:56:53;;;;;;;6.80;4.37;;;25.60;60.80;;;;;;5072586;28;20488;-76
2023/05/12 11:59:28;;;;;;;5.30;4.30;;;25.50;61.20;;;;;;5070439;28;20469;-76
2023/05/12 12:01:55;;;;;;;5.33;4.90;;;25.20;62.20;;;;;;5068500;28;20464;-74
2023/05/12 12:04:35;;;;;;;5.93;4.80;;;25.10;65.60;;;;;;5069952;28;20437;-76
2023/05/12 12:07:05;;;;;;;5.90;5.33;;;25.00;67.00;;;;;;5071657;28;20511;-77
2023/05/12 12:09:33;;;;;;;5.90;5.13;;;24.90;67.60;;;;;;5064278;28;20470;-75
2023/05/12 12:12:01;;;;;;;5.87;5.27;;;24.80;67.60;;;;;;5075849;28;20531;-74
2023/05/12 12:14:27;;;;;;;4.80;4.30;;;24.60;67.70;;;;;;5068367;28;20551;-76
2023/05/12 12:16:54;;;;;;;5.10;4.60;;;24.30;68.40;;;;;;5067422;28;20491;-76
2023/05/12 12:19:21;;;;;;;8.00;5.20;;;24.10;68.50;;;;;;5071463;28;20464;-77
2023/05/12 12:21:48;;;;;;;4.63;4.23;;;24.20;70.00;;;;;;5069889;28;20456;-75
2023/05/12 12:24:17;;;;;;;6.10;5.50;;;24.30;68.50;;;;;;5076388;28;20447;-78
2023/05/12 12:26:44;;;;;;;5.00;4.60;;;24.60;66.60;;;;;;5075655;28;20482;-77
2023/05/12 12:29:11;;;;;;;9.53;4.40;;;24.90;65.00;;;;;;5073290;28;20469;-76
2023/05/12 12:31:38;;;;;;;5.80;4.63;;;25.40;65.20;;;;;;5061155;28;20536;-77
2023/05/12 12:34:06;;;;;;;4.93;4.43;;;25.60;59.80;;;;;;5067628;28;20484;-76
2023/05/12 12:36:33;;;;;;;7.70;4.70;;;25.50;61.80;;;;;;5075203;28;20513;-78